createdAt,value
2019-02-05T00:00:18.898Z,2.5
2019-02-05T00:02:19.350Z,2.8
2019-02-05T00:04:19.034Z,2.1
2019-02-05T00:06:19.034Z,2.9
2019-02-05T00:08:18.711Z,2.6
2019-02-05T00:10:18.893Z,2.7
2019-02-05T00:12:18.641Z,2
2019-02-05T00:14:19.304Z,2.2
2019-02-05T00:16:18.753Z,2.5
2019-02-05T00:18:18.478Z,2.2
2019-02-05T00:20:19.135Z,2.3
2019-02-05T00:22:18.797Z,1.7
2019-02-05T00:24:18.465Z,2.5
2019-02-05T00:26:19.341Z,2.5
2019-02-05T00:28:18.990Z,2.6
2019-02-05T00:30:18.713Z,2.3
2019-02-05T00:32:18.960Z,2.9
2019-02-05T00:34:18.586Z,2.8
2019-02-05T00:36:18.929Z,2.6
2019-02-05T00:38:18.659Z,2
2019-02-05T00:40:19.344Z,2.4
2019-02-05T00:42:18.992Z,3
2019-02-05T00:44:18.683Z,3.1
2019-02-05T00:46:19.131Z,2.4
2019-02-05T00:48:19.389Z,2.9
2019-02-05T00:50:19.075Z,2.6
2019-02-05T00:52:18.750Z,2.2
2019-02-05T00:54:19.406Z,2.4
2019-02-05T00:56:19.148Z,2.4
2019-02-05T00:58:18.801Z,2.6
2019-02-05T01:00:18.530Z,2.7
2019-02-05T01:02:19.200Z,1.9
2019-02-05T01:04:18.837Z,2.6
2019-02-05T01:06:18.925Z,2.5
2019-02-05T01:08:18.680Z,2.3
2019-02-05T01:10:18.852Z,2.8
2019-02-05T01:12:18.523Z,2.4
2019-02-05T01:14:19.313Z,3.1
2019-02-05T01:16:18.769Z,2
2019-02-05T01:18:18.500Z,2.3
2019-02-05T01:20:19.172Z,1.9
2019-02-05T01:22:18.815Z,2.1
2019-02-05T01:24:18.514Z,2.7
2019-02-05T01:26:28.839Z,2.2
2019-02-05T01:28:19.220Z,2.2
2019-02-05T01:30:18.871Z,2.6
2019-02-05T01:32:18.513Z,2.5
2019-02-05T01:34:19.193Z,2
2019-02-05T01:36:18.627Z,2.1
2019-02-05T01:38:19.279Z,2.4
2019-02-05T01:40:18.454Z,2.4
2019-02-05T01:42:19.276Z,2.1
2019-02-05T01:44:18.933Z,2.1
2019-02-05T01:46:19.347Z,2.4
2019-02-05T01:48:19.014Z,2.6
2019-02-05T01:50:19.133Z,2.4
2019-02-05T01:52:18.914Z,2.2
2019-02-05T01:54:18.566Z,2.3
2019-02-05T01:56:19.394Z,2.1
2019-02-05T01:58:18.560Z,1.8
2019-02-05T02:00:19.229Z,2.2
2019-02-05T02:02:18.906Z,2.1
2019-02-05T02:04:18.545Z,2.5
2019-02-05T02:06:19.126Z,2.2
2019-02-05T02:08:18.804Z,2.8
2019-02-05T02:10:19.160Z,1.9
2019-02-05T02:12:18.843Z,2.2
2019-02-05T02:14:18.521Z,1.8
2019-02-05T02:16:18.600Z,2.3
2019-02-05T02:18:19.387Z,3.9
2019-02-05T02:20:19.092Z,7.7
2019-02-05T02:22:18.754Z,2.3
2019-02-05T02:24:19.429Z,2.2
2019-02-05T02:26:19.383Z,2.4
2019-02-05T02:28:19.039Z,2.9
2019-02-05T02:30:18.731Z,2.2
2019-02-05T02:32:19.415Z,1.9
2019-02-05T02:34:19.091Z,2.1
2019-02-05T02:36:19.224Z,2.3
2019-02-05T02:38:18.890Z,2
2019-02-05T02:40:19.040Z,2.1
2019-02-05T02:42:18.741Z,2.2
2019-02-05T02:44:18.957Z,2.3
2019-02-05T02:46:18.880Z,1.9
2019-02-05T02:48:18.561Z,2.8
2019-02-05T02:50:19.238Z,2.6
2019-02-05T02:52:18.902Z,1.9
2019-02-05T02:54:18.611Z,2.9
2019-02-05T02:56:18.515Z,1.7
2019-02-05T02:58:19.204Z,2.1
2019-02-05T03:00:18.613Z,2.1
2019-02-05T03:02:19.324Z,2
2019-02-05T03:04:19.055Z,2.1
2019-02-05T03:06:18.958Z,2.3
2019-02-05T03:08:18.606Z,1.7
2019-02-05T03:10:18.866Z,2.4
2019-02-05T03:12:18.551Z,2
2019-02-05T03:14:18.628Z,2.4
2019-02-05T03:16:19.100Z,2.7
2019-02-05T03:18:18.847Z,2.1
2019-02-05T03:20:18.703Z,2.5
2019-02-05T03:22:19.411Z,2.3
2019-02-05T03:24:19.069Z,2.3
2019-02-05T03:26:18.931Z,2.3
2019-02-05T03:28:18.592Z,2
2019-02-05T03:30:19.276Z,2.6
2019-02-05T03:32:18.982Z,2.4
2019-02-05T03:34:18.643Z,1.7
2019-02-05T03:36:18.563Z,2.7
2019-02-05T03:38:19.282Z,2.1
2019-02-05T03:40:19.557Z,2.2
2019-02-05T03:42:19.220Z,1.7
2019-02-05T03:44:18.887Z,2.5
2019-02-05T03:46:18.927Z,1.8
2019-02-05T03:48:18.701Z,3
2019-02-05T03:50:19.398Z,3.6
2019-02-05T03:52:19.085Z,2.5
2019-02-05T03:54:18.858Z,2.5
2019-02-05T03:56:18.882Z,2
2019-02-05T03:58:19.252Z,1.8
2019-02-05T04:00:18.960Z,1.9
2019-02-05T04:02:18.683Z,2.1
2019-02-05T04:04:19.379Z,2.5
2019-02-05T04:06:19.280Z,2.3
2019-02-05T04:08:18.937Z,2
2019-02-05T04:10:19.156Z,2.3
2019-02-05T04:12:18.876Z,2.9
2019-02-05T04:14:18.531Z,2.5
2019-02-05T04:16:19.420Z,2.1
2019-02-05T04:18:19.181Z,2.2
2019-02-05T04:20:18.909Z,2.8
2019-02-05T04:22:18.591Z,2.6
2019-02-05T04:24:19.306Z,2.9
2019-02-05T04:26:18.720Z,2.5
2019-02-05T04:28:19.414Z,2.5
2019-02-05T04:30:19.077Z,2.4
2019-02-05T04:32:18.755Z,2.4
2019-02-05T04:34:18.466Z,2.5
2019-02-05T04:36:18.831Z,2.4
2019-02-05T04:38:18.499Z,3.1
2019-02-05T04:40:18.639Z,2.5
2019-02-05T04:42:19.345Z,3
2019-02-05T04:44:18.509Z,2.1
2019-02-05T04:46:18.854Z,2.6
2019-02-05T04:48:18.523Z,2.7
2019-02-05T04:50:19.228Z,2.3
2019-02-05T04:52:19.408Z,2.3
2019-02-05T04:54:19.123Z,2.5
2019-02-05T04:56:19.415Z,2.2
2019-02-05T04:58:19.092Z,2.6
2019-02-05T05:00:18.772Z,2.8
2019-02-05T05:02:18.462Z,3
2019-02-05T05:04:19.120Z,1.9
2019-02-05T05:06:18.562Z,2.5
2019-02-05T05:08:19.210Z,2.6
2019-02-05T05:10:19.372Z,2
2019-02-05T05:12:19.057Z,2
2019-02-05T05:14:18.710Z,2.9
2019-02-05T05:16:18.760Z,2.6
2019-02-05T05:18:18.504Z,2.9
2019-02-05T05:20:19.247Z,2.2
2019-02-05T05:22:18.504Z,2.4
2019-02-05T05:24:19.184Z,2.8
2019-02-05T05:26:18.648Z,2.6
2019-02-05T05:28:19.346Z,2.5
2019-02-05T05:30:19.054Z,2.6
2019-02-05T05:32:18.747Z,2.7
2019-02-05T05:34:19.407Z,2.7
2019-02-05T05:36:19.408Z,2.3
2019-02-05T05:38:19.107Z,2.9
2019-02-05T05:40:19.284Z,3.2
2019-02-05T05:42:18.924Z,2.4
2019-02-05T05:44:19.060Z,2.4
2019-02-05T05:46:18.609Z,2.1
2019-02-05T05:48:19.270Z,2.4
2019-02-05T05:50:21.167Z,2.3
2019-02-05T05:52:18.680Z,2.5
2019-02-05T05:54:19.389Z,2.5
2019-02-05T05:56:18.807Z,2.7
2019-02-05T05:58:22.472Z,2.8
2019-02-05T06:00:18.497Z,2.9
2019-02-05T06:02:19.211Z,2.5
2019-02-05T06:04:18.884Z,2.8
2019-02-05T06:06:18.600Z,2.3
2019-02-05T06:08:19.280Z,2.7
2019-02-05T06:10:18.556Z,2.9
2019-02-05T06:12:19.227Z,2.8
2019-02-05T06:14:19.319Z,2
2019-02-05T06:16:18.720Z,3.4
2019-02-05T06:18:18.463Z,2.2
2019-02-05T06:20:19.219Z,2.7
2019-02-05T06:22:18.872Z,2.7
2019-02-05T06:24:18.531Z,3.7
2019-02-05T06:26:20.242Z,3.3
2019-02-05T06:28:19.113Z,4.3
2019-02-05T06:30:18.783Z,2.7
2019-02-05T06:32:18.459Z,3.2
2019-02-05T06:34:19.132Z,2.8
2019-02-05T06:36:18.550Z,2.5
2019-02-05T06:38:19.240Z,2.5
2019-02-05T06:40:19.511Z,1.9
2019-02-05T06:42:19.240Z,3.1
2019-02-05T06:44:18.572Z,2.3
2019-02-05T06:46:18.434Z,3.4
2019-02-05T06:48:19.113Z,2.9
2019-02-05T06:50:18.797Z,2.7
2019-02-05T06:52:18.480Z,2.9
2019-02-05T06:54:19.188Z,3
2019-02-05T06:56:18.804Z,3.3
2019-02-05T06:58:18.496Z,3.9
2019-02-05T07:00:19.152Z,2.7
2019-02-05T07:02:18.814Z,2.6
2019-02-05T07:04:18.475Z,3
2019-02-05T07:06:19.203Z,3.4
2019-02-05T07:08:18.854Z,3.5
2019-02-05T07:10:19.029Z,3.3
2019-02-05T07:12:18.715Z,2.9
2019-02-05T07:14:19.112Z,3.2
2019-02-05T07:16:18.977Z,3.5
2019-02-05T07:18:18.742Z,3.5
2019-02-05T07:20:19.419Z,3.1
2019-02-05T07:22:19.129Z,3.4
2019-02-05T07:24:18.829Z,3.7
2019-02-05T07:26:18.725Z,4.2
2019-02-05T07:28:19.420Z,3
2019-02-05T07:30:19.134Z,4.1
2019-02-05T07:32:18.805Z,3.3
2019-02-05T07:34:21.197Z,3.5
2019-02-05T07:36:18.638Z,3.3
2019-02-05T07:38:19.335Z,3.2
2019-02-05T07:40:18.546Z,3.1
2019-02-05T07:42:19.216Z,3.4
2019-02-05T07:44:18.865Z,3.1
2019-02-05T07:46:19.247Z,3.8
2019-02-05T07:48:18.939Z,3.1
2019-02-05T07:50:19.109Z,2.8
2019-02-05T07:52:18.752Z,2.7
2019-02-05T07:54:19.431Z,3.1
2019-02-05T07:56:18.863Z,2.6
2019-02-05T07:58:18.547Z,3
2019-02-05T08:00:19.258Z,3.1
2019-02-05T08:02:18.941Z,3.2
2019-02-05T08:04:18.669Z,3.4
2019-02-05T08:06:18.744Z,3
2019-02-05T08:08:18.437Z,3.6
2019-02-05T08:10:18.611Z,2.9
2019-02-05T08:12:18.867Z,3.7
2019-02-05T08:14:18.520Z,3.4
2019-02-05T08:16:19.290Z,3.7
2019-02-05T08:18:19.464Z,3.4
2019-02-05T08:20:19.258Z,3.5
2019-02-05T08:22:18.930Z,3.3
2019-02-05T08:24:18.616Z,2.9
2019-02-05T08:26:18.509Z,3.5
2019-02-05T08:28:19.196Z,2.9
2019-02-05T08:30:18.871Z,3
2019-02-05T08:32:18.537Z,3.9
2019-02-05T08:34:19.263Z,3.3
2019-02-05T08:36:18.713Z,4
2019-02-05T08:38:19.497Z,2.9
2019-02-05T08:40:19.057Z,4
2019-02-05T08:42:18.733Z,4.3
2019-02-05T08:44:19.403Z,3.4
2019-02-05T08:46:18.766Z,4
2019-02-05T08:48:18.436Z,3.6
2019-02-05T08:50:19.180Z,3.6
2019-02-05T08:52:18.884Z,4.1
2019-02-05T08:54:18.545Z,3.6
2019-02-05T08:56:19.050Z,3.4
2019-02-05T08:58:30.271Z,4
2019-02-05T09:00:19.018Z,4
2019-02-05T09:02:19.149Z,5
2019-02-05T09:04:18.835Z,3
2019-02-05T09:06:18.758Z,3.4
2019-02-05T09:08:18.462Z,4.2
2019-02-05T09:10:18.747Z,4.6
2019-02-05T09:12:19.421Z,3.9
2019-02-05T09:14:19.102Z,3.5
2019-02-05T09:16:18.518Z,3.3
2019-02-05T09:18:19.428Z,3.9
2019-02-05T09:20:19.189Z,3.1
2019-02-05T09:22:18.870Z,4.3
2019-02-05T09:24:19.032Z,3.9
2019-02-05T09:26:18.759Z,5.1
2019-02-05T09:28:18.448Z,3.7
2019-02-05T09:30:19.152Z,4.7
2019-02-05T09:32:18.522Z,4.2
2019-02-05T09:34:19.171Z,4.5
2019-02-05T09:36:19.137Z,4.1
2019-02-05T09:38:18.848Z,3.5
2019-02-05T09:40:19.023Z,4.4
2019-02-05T09:42:18.697Z,3.5
2019-02-05T09:44:19.396Z,4
2019-02-05T09:46:19.242Z,4.4
2019-02-05T09:48:18.919Z,3.3
2019-02-05T09:50:18.636Z,4.6
2019-02-05T09:52:19.326Z,4.1
2019-02-05T09:54:18.605Z,4.7
2019-02-05T09:56:18.519Z,4.1
2019-02-05T09:58:19.198Z,4.6
2019-02-05T10:00:18.948Z,3.4
2019-02-05T10:02:18.606Z,4.7
2019-02-05T10:04:19.276Z,3.8
2019-02-05T10:06:19.205Z,4.4
2019-02-05T10:08:19.185Z,4.5
2019-02-05T10:10:19.323Z,4.3
2019-02-05T10:12:19.006Z,3.5
2019-02-05T10:14:18.678Z,4.6
2019-02-05T10:16:19.245Z,3.3
2019-02-05T10:18:19.015Z,4.2
2019-02-05T10:20:18.782Z,4.8
2019-02-05T10:22:18.446Z,3.9
2019-02-05T10:24:19.119Z,3.6
2019-02-05T10:26:18.566Z,3.8
2019-02-05T10:28:19.289Z,4.6
2019-02-05T10:30:19.464Z,4
2019-02-05T10:32:19.157Z,3.9
2019-02-05T10:34:18.813Z,4.3
2019-02-05T10:36:19.194Z,4.8
2019-02-05T10:38:19.391Z,4.3
2019-02-05T10:40:18.595Z,4.2
2019-02-05T10:42:19.283Z,4.7
2019-02-05T10:44:18.986Z,4.4
2019-02-05T10:46:19.434Z,4.9
2019-02-05T10:48:19.171Z,5
2019-02-05T10:50:18.893Z,3.5
2019-02-05T10:52:18.735Z,5.5
2019-02-05T10:54:19.449Z,5.2
2019-02-05T10:56:19.390Z,4.3
2019-02-05T10:58:19.101Z,4.9
2019-02-05T11:00:19.417Z,4.4
2019-02-05T11:02:19.172Z,4.7
2019-02-05T11:04:18.898Z,4.8
2019-02-05T11:06:20.061Z,3.7
2019-02-05T11:08:18.958Z,4.7
2019-02-05T11:10:19.121Z,4.4
2019-02-05T11:12:18.832Z,4.6
2019-02-05T11:14:18.522Z,4.5
2019-02-05T11:16:18.991Z,4.5
2019-02-05T11:18:18.750Z,5
2019-02-05T11:20:18.459Z,4.9
2019-02-05T11:22:18.748Z,4.7
2019-02-05T11:24:19.418Z,4.3
2019-02-05T11:26:19.001Z,5.1
2019-02-05T11:28:18.740Z,4.6
2019-02-05T11:30:20.471Z,5.4
2019-02-05T11:32:19.430Z,4.7
2019-02-05T11:34:19.134Z,4.9
2019-02-05T11:36:18.581Z,4.6
2019-02-05T11:38:19.300Z,4.3
2019-02-05T11:40:18.476Z,4.6
2019-02-05T11:42:19.186Z,4.8
2019-02-05T11:44:18.542Z,5.9
2019-02-05T11:46:19.061Z,5
2019-02-05T11:48:18.720Z,4.7
2019-02-05T11:50:19.441Z,4.8
2019-02-05T11:52:19.139Z,5
2019-02-05T11:54:18.821Z,4.4
2019-02-05T11:56:19.264Z,5.2
2019-02-05T11:58:18.960Z,4.8
2019-02-05T12:00:18.683Z,4.7
2019-02-05T12:02:19.390Z,4.3
2019-02-05T12:04:19.094Z,4.1
2019-02-05T12:06:19.025Z,4.1
2019-02-05T12:08:18.847Z,4.7
2019-02-05T12:10:19.057Z,4.9
2019-02-05T12:12:18.713Z,4.6
2019-02-05T12:14:19.438Z,4.8
2019-02-05T12:16:18.574Z,4.2
2019-02-05T12:18:19.330Z,4.2
2019-02-05T12:20:19.034Z,4.6
2019-02-05T12:22:18.756Z,4.7
2019-02-05T12:24:18.444Z,4.8
2019-02-05T12:26:19.054Z,4.5
2019-02-05T12:28:19.325Z,4.9
2019-02-05T12:30:19.002Z,5
2019-02-05T12:32:18.687Z,5.6
2019-02-05T12:34:19.354Z,3.6
2019-02-05T12:36:19.278Z,5.2
2019-02-05T12:38:18.977Z,5
2019-02-05T12:40:19.160Z,4.9
2019-02-05T12:42:18.869Z,4.3
2019-02-05T12:44:18.562Z,4.7
2019-02-05T12:46:19.026Z,4.1
2019-02-05T12:48:18.726Z,4.7
2019-02-05T12:50:18.828Z,4.5
2019-02-05T12:52:18.495Z,4.8
2019-02-05T12:54:19.190Z,4.4
2019-02-05T12:56:19.317Z,3.9
2019-02-05T12:58:18.645Z,4.6
2019-02-05T13:00:19.470Z,5.8
2019-02-05T13:02:19.238Z,4.1
2019-02-05T13:04:18.915Z,5.2
2019-02-05T13:06:19.297Z,5.4
2019-02-05T13:08:18.952Z,4.1
2019-02-05T13:10:19.109Z,4.6
2019-02-05T13:12:18.794Z,4.9
2019-02-05T13:14:18.426Z,5.7
2019-02-05T13:16:18.780Z,4.3
2019-02-05T13:18:18.545Z,5.4
2019-02-05T13:20:19.221Z,4.2
2019-02-05T13:22:18.914Z,4.3
2019-02-05T13:24:18.618Z,4.1
2019-02-05T13:26:19.001Z,5.4
2019-02-05T13:28:18.641Z,4
2019-02-05T13:30:19.306Z,4.9
2019-02-05T13:32:18.770Z,4.9
2019-02-05T13:34:19.432Z,4.8
2019-02-05T13:36:19.150Z,5
2019-02-05T13:38:18.861Z,4.5
2019-02-05T13:40:19.081Z,5.1
2019-02-05T13:42:18.715Z,5.4
2019-02-05T13:44:18.753Z,5
2019-02-05T13:46:19.131Z,4.7
2019-02-05T13:48:18.805Z,5.1
2019-02-05T13:50:18.483Z,5.1
2019-02-05T13:52:18.751Z,5.5
2019-02-05T13:54:19.439Z,5.9
2019-02-05T13:56:18.809Z,5.8
2019-02-05T13:58:18.479Z,5.1
2019-02-05T14:00:18.837Z,4.8
2019-02-05T14:02:19.448Z,4
2019-02-05T14:04:19.152Z,5.4
2019-02-05T14:06:18.769Z,5.1
2019-02-05T14:08:19.444Z,5.2
2019-02-05T14:10:18.607Z,5.7
2019-02-05T14:12:21.768Z,5.3
2019-02-05T14:14:18.805Z,6
2019-02-05T14:16:19.087Z,5.6
2019-02-05T14:18:18.827Z,5.3
2019-02-05T14:20:18.527Z,5.8
2019-02-05T14:22:18.485Z,5.8
2019-02-05T14:24:19.157Z,6.4
2019-02-05T14:26:18.512Z,5.8
2019-02-05T14:28:19.200Z,5.6
2019-02-05T14:30:19.321Z,5.5
2019-02-05T14:32:19.005Z,5.7
2019-02-05T14:34:18.699Z,5
2019-02-05T14:36:18.702Z,4.7
2019-02-05T14:38:19.011Z,5.5
2019-02-05T14:40:19.148Z,4.8
2019-02-05T14:42:18.805Z,5
2019-02-05T14:44:18.466Z,5.1
2019-02-05T14:46:19.272Z,4.6
2019-02-05T14:48:18.951Z,6.2
2019-02-05T14:50:18.615Z,4.9
2019-02-05T14:52:19.272Z,5.8
2019-02-05T14:54:18.935Z,5.3
2019-02-05T14:56:19.271Z,5.8
2019-02-05T14:58:18.940Z,5.4
2019-02-05T15:00:18.676Z,5.6
2019-02-05T15:02:19.336Z,5.4
2019-02-05T15:04:18.976Z,5.4
2019-02-05T15:06:18.918Z,5
2019-02-05T15:08:18.627Z,5.9
2019-02-05T15:10:18.743Z,5.4
2019-02-05T15:12:19.395Z,5.1
2019-02-05T15:14:19.057Z,4.8
2019-02-05T15:16:18.942Z,6.4
2019-02-05T15:18:18.692Z,5.9
2019-02-05T15:20:19.375Z,6
2019-02-05T15:22:19.034Z,5.6
2019-02-05T15:24:18.679Z,5.5
2019-02-05T15:26:18.903Z,4.4
2019-02-05T15:28:18.582Z,5.6
2019-02-05T15:30:19.318Z,6.5
2019-02-05T15:32:18.556Z,5.6
2019-02-05T15:34:19.208Z,6.2
2019-02-05T15:36:19.289Z,5.5
2019-02-05T15:38:18.975Z,5.8
2019-02-05T15:40:18.833Z,5.8
2019-02-05T15:42:18.491Z,5.7
2019-02-05T15:44:19.196Z,5.2
2019-02-05T15:46:19.328Z,5.9
2019-02-05T15:48:18.614Z,6.1
2019-02-05T15:50:19.287Z,5.9
2019-02-05T15:52:18.971Z,6.4
2019-02-05T15:54:18.657Z,5.6
2019-02-05T15:56:19.387Z,6
2019-02-05T15:58:19.058Z,6.1
2019-02-05T16:00:18.759Z,6.2
2019-02-05T16:02:19.150Z,6.2
2019-02-05T16:04:18.816Z,5.5
2019-02-05T16:06:18.716Z,5.5
2019-02-05T16:08:19.382Z,5.5
2019-02-05T16:10:18.678Z,6.1
2019-02-05T16:12:19.351Z,6.7
2019-02-05T16:14:19.072Z,6.7
2019-02-05T16:16:19.424Z,6.4
2019-02-05T16:18:19.178Z,6.3
2019-02-05T16:20:18.855Z,6.2
2019-02-05T16:22:18.512Z,6
2019-02-05T16:24:19.204Z,6.4
2019-02-05T16:26:18.911Z,7.1
2019-02-05T16:28:18.566Z,5.7
2019-02-05T16:30:19.285Z,6.3
2019-02-05T16:32:18.922Z,7
2019-02-05T16:34:19.188Z,6.9
2019-02-05T16:36:19.028Z,5.7
2019-02-05T16:38:18.699Z,6
2019-02-05T16:40:18.892Z,6.8
2019-02-05T16:42:18.568Z,7.6
2019-02-05T16:44:19.254Z,6.3
2019-02-05T16:46:19.160Z,6.5
2019-02-05T16:48:18.835Z,6.8
2019-02-05T16:50:18.572Z,6.4
2019-02-05T16:52:18.521Z,6.5
2019-02-05T16:54:19.213Z,6.3
2019-02-05T16:56:18.583Z,6.6
2019-02-05T16:58:19.249Z,7.1
2019-02-05T17:00:18.919Z,6.3
2019-02-05T17:02:28.537Z,7.3
2019-02-05T17:04:18.871Z,5.2
2019-02-05T17:06:19.104Z,5.6
2019-02-05T17:08:18.751Z,6.1
2019-02-05T17:10:18.879Z,6.4
2019-02-05T17:12:19.155Z,6.1
2019-02-05T17:14:18.855Z,6.8
2019-02-05T17:16:18.793Z,5.9
2019-02-05T17:18:23.425Z,6.1
2019-02-05T17:20:18.786Z,7.1
2019-02-05T17:22:18.561Z,8.1
2019-02-05T17:24:19.281Z,7.4
2019-02-05T17:26:19.350Z,7.5
2019-02-05T17:28:19.131Z,3.7
2019-02-05T17:30:18.871Z,6.5
2019-02-05T17:32:18.535Z,7.2
2019-02-05T17:34:19.210Z,7.3
2019-02-05T17:36:19.352Z,4.9
2019-02-05T17:38:19.006Z,6.5
2019-02-05T17:40:19.140Z,6.8
2019-02-05T17:42:18.797Z,7.1
2019-02-05T17:44:19.422Z,7
2019-02-05T17:46:18.921Z,5.8
2019-02-05T17:48:18.577Z,7.4
2019-02-05T17:50:19.232Z,6.6
2019-02-05T17:52:18.893Z,7
2019-02-05T17:54:18.559Z,5.8
2019-02-05T17:56:18.615Z,6
2019-02-05T17:58:18.647Z,6.4
2019-02-05T18:00:19.302Z,6.2
2019-02-05T18:02:19.005Z,5.1
2019-02-05T18:04:18.638Z,6
2019-02-05T18:06:18.853Z,6.1
2019-02-05T18:08:18.559Z,7.6
2019-02-05T18:10:18.735Z,7
2019-02-05T18:12:19.385Z,6.6
2019-02-05T18:14:18.470Z,9.1
2019-02-05T18:16:18.840Z,8.2
2019-02-05T18:18:18.629Z,7.6
2019-02-05T18:20:19.313Z,8.5
2019-02-05T18:22:18.989Z,5.5
2019-02-05T18:24:18.665Z,6.8
2019-02-05T18:26:18.535Z,8.3
2019-02-05T18:28:19.193Z,7.3
2019-02-05T18:30:18.860Z,7.9
2019-02-05T18:32:18.503Z,5.9
2019-02-05T18:34:19.159Z,7.1
2019-02-05T18:36:18.570Z,6.7
2019-02-05T18:38:19.236Z,6.7
2019-02-05T18:40:19.456Z,6.1
2019-02-05T18:42:19.092Z,6.8
2019-02-05T18:44:18.755Z,7.3
2019-02-05T18:46:19.354Z,6.3
2019-02-05T18:48:19.026Z,7
2019-02-05T18:50:18.682Z,6.6
2019-02-05T18:52:18.814Z,7.8
2019-02-05T18:54:18.456Z,6.7
2019-02-05T18:56:18.564Z,6.1
2019-02-05T18:58:19.244Z,5.6
2019-02-05T19:00:18.464Z,6.4
2019-02-05T19:02:19.131Z,6.6
2019-02-05T19:04:18.800Z,6.3
2019-02-05T19:06:18.862Z,6.7
2019-02-05T19:08:18.504Z,6.5
2019-02-05T19:10:18.606Z,7.4
2019-02-05T19:12:19.263Z,6.1
2019-02-05T19:14:18.945Z,6.5
2019-02-05T19:16:19.302Z,5.6
2019-02-05T19:18:19.070Z,6.5
2019-02-05T19:20:18.834Z,6.4
2019-02-05T19:22:18.502Z,6.3
2019-02-05T19:24:19.222Z,6
2019-02-05T19:26:18.549Z,6.7
2019-02-05T19:28:19.265Z,6
2019-02-05T19:30:18.934Z,6.2
2019-02-05T19:32:18.578Z,6.9
2019-02-05T19:34:19.268Z,7.5
2019-02-05T19:36:18.613Z,6
2019-02-05T19:38:18.589Z,5.1
2019-02-05T19:40:18.793Z,6.6
2019-02-05T19:42:18.467Z,6.2
2019-02-05T19:44:19.156Z,6.7
2019-02-05T19:46:19.314Z,6.7
2019-02-05T19:48:19.065Z,6.6
2019-02-05T19:50:19.427Z,7
2019-02-05T19:52:19.126Z,6.6
2019-02-05T19:54:18.794Z,6
2019-02-05T19:56:19.182Z,6.3
2019-02-05T19:58:18.862Z,6.3
2019-02-05T20:00:18.561Z,6.1
2019-02-05T20:02:19.233Z,7.2
2019-02-05T20:04:18.919Z,6.3
2019-02-05T20:06:19.311Z,6.5
2019-02-05T20:08:18.979Z,7.3
2019-02-05T20:10:19.151Z,6.1
2019-02-05T20:12:18.569Z,6.3
2019-02-05T20:14:18.819Z,7.3
2019-02-05T20:16:18.748Z,6.7
2019-02-05T20:18:18.507Z,6.6
2019-02-05T20:20:19.164Z,5.9
2019-02-05T20:22:18.588Z,5.5
2019-02-05T20:24:19.236Z,6.9
2019-02-05T20:26:18.608Z,7.2
2019-02-05T20:28:19.288Z,8.4
2019-02-05T20:30:19.035Z,7.4
2019-02-05T20:32:18.711Z,5.7
2019-02-05T20:34:19.369Z,7.2
2019-02-05T20:36:18.716Z,6.8
2019-02-05T20:38:19.386Z,6.7
2019-02-05T20:40:18.542Z,7.5
2019-02-05T20:42:19.246Z,7
2019-02-05T20:44:19.345Z,6.8
2019-02-05T20:46:19.430Z,7.7
2019-02-05T20:48:19.079Z,8.3
2019-02-05T20:50:18.758Z,7.5
2019-02-05T20:52:18.503Z,7.1
2019-02-05T20:54:19.171Z,7.3
2019-02-05T20:56:18.585Z,7.6
2019-02-05T20:58:19.261Z,7.2
2019-02-05T21:00:18.942Z,7.5
2019-02-05T21:02:18.644Z,6.5
2019-02-05T21:04:19.321Z,7.9
2019-02-05T21:06:18.900Z,7.5
2019-02-05T21:08:18.561Z,7.5
2019-02-05T21:10:18.892Z,7
2019-02-05T21:12:18.554Z,7.9
2019-02-05T21:14:19.195Z,5.8
2019-02-05T21:16:19.044Z,7.8
2019-02-05T21:18:18.830Z,6.6
2019-02-05T21:20:28.661Z,6.5
2019-02-05T21:22:18.489Z,5.5
2019-02-05T21:24:19.152Z,7.1
2019-02-05T21:26:18.585Z,6.3
2019-02-05T21:28:18.747Z,6.5
2019-02-05T21:30:19.406Z,6
2019-02-05T21:32:19.090Z,6.3
2019-02-05T21:34:18.760Z,7.4
2019-02-05T21:36:19.175Z,7.4
2019-02-05T21:38:18.857Z,5.5
2019-02-05T21:40:19.009Z,5.9
2019-02-05T21:42:18.685Z,5.8
2019-02-05T21:44:19.375Z,6.1
2019-02-05T21:46:18.901Z,5.7
2019-02-05T21:48:18.589Z,7.6
2019-02-05T21:50:19.267Z,6.5
2019-02-05T21:52:18.950Z,6.9
2019-02-05T21:54:18.644Z,6.5
2019-02-05T21:56:19.097Z,6.7
2019-02-05T21:58:19.436Z,6.7
2019-02-05T22:00:19.226Z,5.8
2019-02-05T22:02:18.998Z,5.3
2019-02-05T22:04:26.602Z,5.8
2019-02-05T22:06:18.667Z,6.5
2019-02-05T22:08:19.400Z,7
2019-02-05T22:10:18.694Z,7.9
2019-02-05T22:12:19.416Z,6.6
2019-02-05T22:14:19.112Z,7
2019-02-05T22:16:19.769Z,6.1
2019-02-05T22:18:18.592Z,6.4
2019-02-05T22:20:19.344Z,6.7
2019-02-05T22:22:19.091Z,6.1
2019-02-05T22:24:18.771Z,7
2019-02-05T22:26:18.800Z,5.7
2019-02-05T22:28:20.585Z,6.8
2019-02-05T22:30:18.988Z,6.6
2019-02-05T22:32:19.062Z,6.8
2019-02-05T22:34:18.733Z,6.3
2019-02-05T22:36:19.209Z,6.8
2019-02-05T22:38:18.915Z,6.1
2019-02-05T22:40:19.061Z,7.3
2019-02-05T22:42:18.765Z,6.9
2019-02-05T22:44:18.443Z,5.6
2019-02-05T22:46:18.525Z,5.4
2019-02-05T22:48:19.212Z,6.6
2019-02-05T22:50:18.951Z,6.3
2019-02-05T22:52:18.942Z,6.4
2019-02-05T22:54:18.628Z,6.4
2019-02-05T22:56:18.532Z,7.2
2019-02-05T22:58:18.730Z,6.4
2019-02-05T23:00:19.425Z,6.4
2019-02-05T23:02:18.846Z,5.8
2019-02-05T23:04:18.551Z,6.7
2019-02-05T23:06:18.445Z,5.8
2019-02-05T23:08:19.138Z,5.9
2019-02-05T23:10:19.326Z,5.7
2019-02-05T23:12:18.973Z,4.8
2019-02-05T23:14:18.764Z,6.1
2019-02-05T23:16:19.076Z,5.7
2019-02-05T23:18:18.814Z,6.6
2019-02-05T23:20:18.506Z,6.6
2019-02-05T23:22:18.864Z,5.7
2019-02-05T23:24:18.516Z,6.6
2019-02-05T23:26:19.127Z,6.5
2019-02-05T23:28:18.806Z,6.6
2019-02-05T23:30:18.483Z,5.7
2019-02-05T23:32:19.130Z,7.1
2019-02-05T23:34:18.762Z,6.9
2019-02-05T23:36:18.635Z,5.9
2019-02-05T23:38:19.314Z,6.3
2019-02-05T23:40:18.470Z,6.1
2019-02-05T23:42:19.128Z,6.9
2019-02-05T23:44:18.779Z,7
2019-02-05T23:46:19.124Z,5.5
2019-02-05T23:48:18.811Z,6.2
2019-02-05T23:50:18.511Z,6.9
2019-02-05T23:52:19.374Z,7.1
2019-02-05T23:54:19.054Z,6.9
2019-02-05T23:56:25.537Z,6.6
2019-02-05T23:58:18.876Z,5.7
